Time;durP1;ratioP1;P1;durP2;ratioP2;P2;SDS_P1;SDS_P2;PMS_P1;PMS_P2;Temp;Humidity;BMP_temperature;BMP_pressure;BME280_temperature;BME280_humidity;BME280_pressure;Samples;Min_cycle;Max_cycle;Signal;HPM_P1;HPM_P2
2022/12/01 00:02:24;;;;;;;28.52;15.30;;;5.90;99.90;;;;;;5038259;28;20072;-65
2022/12/01 00:04:50;;;;;;;30.13;15.25;;;5.90;99.90;;;;;;5053691;28;20189;-65
2022/12/01 00:07:16;;;;;;;26.13;14.68;;;5.90;99.90;;;;;;5055805;28;20071;-65
2022/12/01 00:12:25;;;;;;;30.05;16.05;;;5.90;99.90;;;;;;5033530;28;20540;-66
2022/12/01 00:14:59;;;;;;;30.48;15.15;;;5.90;99.90;;;;;;5091981;27;20095;-65
2022/12/01 00:17:28;;;;;;;33.90;16.15;;;5.90;99.90;;;;;;5137273;27;20039;-65
2022/12/01 00:19:54;;;;;;;36.22;17.45;;;5.90;99.90;;;;;;5138980;27;20051;-65
2022/12/01 00:22:19;;;;;;;33.22;16.02;;;5.90;99.90;;;;;;5136073;27;20039;-65
2022/12/01 00:24:45;;;;;;;36.40;16.75;;;5.90;99.90;;;;;;5040198;27;20053;-66
2022/12/01 00:27:11;;;;;;;35.28;18.00;;;5.90;99.90;;;;;;5013849;28;20057;-66
2022/12/01 00:29:37;;;;;;;35.95;17.00;;;5.90;99.90;;;;;;5013941;28;20165;-66
2022/12/01 00:32:02;;;;;;;34.83;16.25;;;6.10;99.90;;;;;;5014294;28;20050;-66
2022/12/01 00:34:28;;;;;;;37.40;16.88;;;5.90;99.90;;;;;;5012246;28;20061;-66
2022/12/01 00:36:54;;;;;;;38.50;17.40;;;5.90;99.90;;;;;;5013624;28;20064;-66
2022/12/01 00:39:19;;;;;;;40.75;18.60;;;5.80;99.90;;;;;;5017515;28;20046;-66
2022/12/01 00:41:45;;;;;;;36.25;18.70;;;5.80;99.90;;;;;;5021473;28;20038;-66
2022/12/01 00:44:11;;;;;;;37.40;17.35;;;5.90;99.90;;;;;;5015433;28;20057;-65
2022/12/01 00:46:36;;;;;;;33.70;16.80;;;5.80;99.90;;;;;;5014113;28;20042;-66
2022/12/01 00:49:02;;;;;;;38.13;18.45;;;5.90;99.90;;;;;;5013581;28;20049;-66
2022/12/01 00:51:28;;;;;;;38.92;18.08;;;5.80;99.90;;;;;;5012989;28;20049;-66
2022/12/01 00:53:53;;;;;;;35.72;16.02;;;5.80;99.90;;;;;;5017177;28;20050;-66
2022/12/01 00:56:20;;;;;;;39.33;18.33;;;5.90;99.90;;;;;;5013224;28;20073;-66
2022/12/01 00:58:45;;;;;;;42.95;17.58;;;6.00;99.90;;;;;;5017810;28;20037;-65
2022/12/01 01:01:11;;;;;;;36.65;17.55;;;6.00;99.90;;;;;;5013131;28;20046;-65
2022/12/01 01:03:37;;;;;;;40.53;19.55;;;5.90;99.90;;;;;;4999208;28;20053;-65
2022/12/01 01:06:08;;;;;;;41.15;19.60;;;6.00;99.90;;;;;;5024379;28;20056;-66
2022/12/01 01:08:34;;;;;;;40.15;18.23;;;5.90;99.90;;;;;;5012033;28;20458;-65
2022/12/01 01:11:00;;;;;;;39.47;17.05;;;5.90;99.90;;;;;;5015994;28;20093;-66
2022/12/01 01:13:26;;;;;;;43.22;18.77;;;5.90;99.90;;;;;;5042163;28;20416;-66
2022/12/01 01:16:16;;;;;;;33.50;16.77;;;5.90;99.90;;;;;;5039445;28;20153;-66
2022/12/01 01:18:42;;;;;;;43.13;18.17;;;5.90;99.90;;;;;;5013677;28;20062;-65
2022/12/01 01:21:11;;;;;;;44.33;19.98;;;5.80;99.90;;;;;;5028107;28;20053;-66
2022/12/01 01:23:37;;;;;;;37.58;17.20;;;5.70;99.90;;;;;;5013557;28;20579;-65
2022/12/01 01:26:08;;;;;;;38.17;18.45;;;5.80;99.90;;;;;;5012884;28;20167;-65
2022/12/01 01:28:34;;;;;;;39.58;18.33;;;5.80;99.90;;;;;;5030054;28;20405;-65
2022/12/01 01:31:07;;;;;;;43.42;18.60;;;5.80;99.90;;;;;;5022786;28;20046;-65
2022/12/01 01:33:33;;;;;;;42.72;19.00;;;5.80;99.90;;;;;;5014954;28;20621;-65
2022/12/01 01:35:59;;;;;;;39.60;20.23;;;5.80;99.90;;;;;;5014395;28;20042;-65
2022/12/01 01:38:25;;;;;;;41.38;18.45;;;5.80;99.90;;;;;;5080743;28;20058;-66
2022/12/01 01:40:51;;;;;;;44.15;18.42;;;5.80;99.90;;;;;;5040403;28;20061;-66
2022/12/01 01:43:36;;;;;;;41.15;18.42;;;5.80;99.90;;;;;;5019048;28;20042;-65
2022/12/01 01:46:03;;;;;;;39.85;18.85;;;5.80;99.90;;;;;;5025073;28;20081;-66
2022/12/01 01:48:29;;;;;;;41.08;19.20;;;5.80;99.90;;;;;;5012242;28;20057;-65
2022/12/01 01:50:54;;;;;;;42.83;18.20;;;5.90;99.90;;;;;;5021944;28;20049;-66
2022/12/01 01:53:21;;;;;;;38.83;19.60;;;5.90;99.90;;;;;;5002634;28;20052;-65
2022/12/01 01:55:46;;;;;;;41.97;19.58;;;5.90;99.90;;;;;;5026336;28;20519;-66
2022/12/01 01:58:12;;;;;;;31.80;15.48;;;6.00;99.90;;;;;;5018465;28;20045;-65
2022/12/01 02:00:41;;;;;;;38.08;17.80;;;5.90;99.90;;;;;;5014382;28;20607;-66
2022/12/01 02:03:10;;;;;;;36.33;17.77;;;5.90;99.90;;;;;;5032945;27;20041;-65
2022/12/01 02:05:38;;;;;;;40.22;18.73;;;6.10;99.90;;;;;;5015278;28;20061;-65
2022/12/01 02:08:04;;;;;;;41.33;17.83;;;5.90;99.90;;;;;;5016015;28;20042;-66
2022/12/01 02:10:50;;;;;;;43.33;19.98;;;5.90;99.90;;;;;;5025639;28;20050;-65
2022/12/01 02:13:25;;;;;;;38.65;18.17;;;5.90;99.90;;;;;;5024784;27;20060;-65
2022/12/01 02:16:07;;;;;;;45.63;18.95;;;5.90;99.90;;;;;;5018680;28;20053;-65
2022/12/01 02:18:44;;;;;;;37.47;17.02;;;5.90;99.90;;;;;;5041244;27;20050;-65
2022/12/01 02:21:41;;;;;;;39.83;18.25;;;5.90;99.90;;;;;;5021297;28;20050;-65
2022/12/01 02:24:24;;;;;;;36.88;17.70;;;5.90;99.90;;;;;;5020683;28;20057;-65
2022/12/01 02:26:59;;;;;;;41.25;17.83;;;5.90;99.90;;;;;;5082501;27;20055;-65
2022/12/01 02:29:25;;;;;;;38.70;18.15;;;5.90;99.90;;;;;;5016089;28;20041;-66
2022/12/01 02:32:31;;;;;;;35.78;17.90;;;5.90;99.90;;;;;;5020066;28;20050;-65
2022/12/01 02:35:07;;;;;;;41.65;17.00;;;5.90;99.90;;;;;;5015621;28;20054;-66
2022/12/01 02:37:35;;;;;;;;;;;6.00;99.90;;;;;;5017147;28;20054;-65
2022/12/01 02:40:30;;;;;;;36.88;18.15;;;5.90;99.90;;;;;;5014853;28;19932;-65
2022/12/01 02:43:19;;;;;;;37.88;17.67;;;5.90;99.90;;;;;;5007779;28;20068;-65
2022/12/01 02:46:04;;;;;;;44.10;19.17;;;5.90;99.90;;;;;;4998760;28;20042;-65
2022/12/01 02:48:36;;;;;;;44.03;20.08;;;5.90;99.90;;;;;;5014946;28;20054;-65
2022/12/01 02:51:29;;;;;;;42.75;17.77;;;5.90;99.90;;;;;;5015418;28;20045;-65
2022/12/01 02:54:00;;;;;;;41.72;18.90;;;5.80;99.90;;;;;;5015179;28;20497;-65
2022/12/01 02:56:26;;;;;;;38.97;18.00;;;5.80;99.90;;;;;;5015415;28;20451;-65
2022/12/01 02:58:51;;;;;;;37.40;17.67;;;5.80;99.90;;;;;;5020132;28;20071;-65
2022/12/01 03:01:36;;;;;;;34.08;17.00;;;5.80;99.90;;;;;;5015198;28;20046;-65
2022/12/01 03:04:22;;;;;;;36.20;16.88;;;5.80;99.90;;;;;;5015354;28;20553;-65
2022/12/01 03:07:18;;;;;;;34.58;17.23;;;5.80;99.90;;;;;;5016925;28;20646;-65
2022/12/01 03:10:04;;;;;;;35.80;16.98;;;5.80;99.90;;;;;;5015222;28;20083;-66
2022/12/01 03:12:49;;;;;;;35.35;18.08;;;5.70;99.90;;;;;;5014014;28;20109;-66
2022/12/01 03:15:18;;;;;;;37.08;17.92;;;5.70;99.90;;;;;;5083428;27;20054;-65
2022/12/01 03:18:08;;;;;;;40.88;18.15;;;5.70;99.90;;;;;;5017055;28;20050;-65
2022/12/01 03:20:43;;;;;;;35.90;18.25;;;5.70;99.90;;;;;;5015613;28;20125;-66
2022/12/01 03:23:16;;;;;;;34.55;17.80;;;5.60;99.90;;;;;;4998786;28;20042;-65
2022/12/01 03:25:45;;;;;;;31.90;16.05;;;5.70;99.90;;;;;;5014437;28;20440;-65
2022/12/01 03:28:14;;;;;;;34.58;17.33;;;5.60;99.90;;;;;;5017001;28;20049;-65
2022/12/01 03:30:42;;;;;;;36.58;16.88;;;5.70;99.90;;;;;;5013152;28;20060;-65
2022/12/01 03:33:22;;;;;;;33.08;16.50;;;5.70;99.90;;;;;;5014453;28;20073;-66
2022/12/01 03:35:54;;;;;;;37.60;17.33;;;5.70;99.90;;;;;;5022178;28;20049;-65
2022/12/01 03:38:26;;;;;;;35.28;17.70;;;5.70;99.90;;;;;;5022130;28;20060;-65
2022/12/01 03:40:56;;;;;;;33.00;17.23;;;5.70;99.90;;;;;;5015103;28;20046;-66
2022/12/01 03:43:33;;;;;;;33.25;17.48;;;5.70;99.90;;;;;;5026055;28;20067;-66
2022/12/01 03:46:10;;;;;;;;;;;5.70;99.90;;;;;;5026584;28;20053;-65
2022/12/01 03:48:38;;;;;;;33.65;17.17;;;5.70;99.90;;;;;;5016314;28;19964;-65
2022/12/01 03:51:22;;;;;;;39.13;19.13;;;5.70;99.90;;;;;;5014469;28;20041;-65
2022/12/01 03:53:58;;;;;;;36.28;17.48;;;5.70;99.90;;;;;;5020796;28;20050;-66
2022/12/01 03:56:30;;;;;;;38.43;18.13;;;5.70;99.90;;;;;;5014754;28;20053;-66
2022/12/01 03:58:58;;;;;;;33.40;16.95;;;5.70;99.90;;;;;;5015656;28;20486;-66
2022/12/01 04:01:30;;;;;;;29.40;16.25;;;5.70;99.90;;;;;;5013497;28;20073;-65
2022/12/01 04:04:03;;;;;;;33.95;17.92;;;5.70;99.90;;;;;;5013359;28;20549;-65
2022/12/01 04:06:28;;;;;;;36.53;17.50;;;5.70;99.90;;;;;;5016029;28;20123;-65
2022/12/01 04:08:54;;;;;;;35.35;18.30;;;5.80;99.90;;;;;;5018174;28;20054;-66
2022/12/01 04:14:04;;;;;;;34.55;17.52;;;5.70;99.90;;;;;;5014992;28;20038;-65
2022/12/01 04:16:29;;;;;;;38.05;18.92;;;5.70;99.90;;;;;;5013351;28;20053;-66
2022/12/01 04:18:55;;;;;;;32.85;17.23;;;5.70;99.90;;;;;;5033311;28;20048;-65
2022/12/01 04:21:21;;;;;;;37.38;18.40;;;5.80;99.90;;;;;;5018619;28;20054;-66
2022/12/01 04:23:58;;;;;;;30.70;17.52;;;5.80;99.90;;;;;;5015984;28;20486;-65
2022/12/01 04:26:24;;;;;;;35.58;18.65;;;5.70;99.90;;;;;;5014033;28;20046;-65
2022/12/01 04:28:50;;;;;;;35.28;17.35;;;5.70;99.90;;;;;;5015548;28;20091;-65
2022/12/01 04:31:16;;;;;;;34.90;18.65;;;5.70;99.90;;;;;;5009246;28;20102;-65
2022/12/01 04:33:42;;;;;;;37.15;18.08;;;5.70;99.90;;;;;;5016833;28;20045;-65
2022/12/01 04:36:08;;;;;;;38.63;18.05;;;5.70;99.90;;;;;;5032508;28;20044;-65
2022/12/01 04:38:35;;;;;;;37.50;19.67;;;5.70;99.90;;;;;;5023898;28;20045;-65
2022/12/01 04:41:08;;;;;;;34.72;18.05;;;5.70;99.90;;;;;;5013659;28;20106;-65
2022/12/01 04:43:33;;;;;;;37.15;17.48;;;5.70;99.90;;;;;;5012482;28;20040;-65
2022/12/01 04:45:59;;;;;;;35.80;17.23;;;5.70;99.90;;;;;;5013580;28;20110;-66
2022/12/01 04:48:25;;;;;;;36.05;18.35;;;5.70;99.90;;;;;;5014903;28;20099;-65
2022/12/01 04:50:50;;;;;;;38.70;19.58;;;5.70;99.90;;;;;;5015530;28;20053;-66
2022/12/01 04:53:16;;;;;;;40.00;18.85;;;5.70;99.90;;;;;;5015355;28;20078;-65
2022/12/01 04:55:42;;;;;;;36.97;18.00;;;5.60;99.90;;;;;;5013587;28;20180;-65
2022/12/01 04:58:07;;;;;;;36.88;18.60;;;5.70;99.90;;;;;;5013553;28;20072;-65
2022/12/01 05:00:33;;;;;;;41.40;19.88;;;5.70;99.90;;;;;;5013604;28;20138;-65
2022/12/01 05:03:00;;;;;;;32.92;18.35;;;5.60;99.90;;;;;;5015097;28;20053;-65
2022/12/01 05:05:25;;;;;;;34.28;18.15;;;5.70;99.90;;;;;;5012604;28;20057;-65
2022/12/01 05:07:51;;;;;;;34.30;18.10;;;5.70;99.90;;;;;;5012751;28;20041;-65
2022/12/01 05:10:17;;;;;;;35.85;20.35;;;5.60;99.90;;;;;;5013002;28;20046;-65
2022/12/01 05:12:47;;;;;;;36.70;17.60;;;5.70;99.90;;;;;;5013478;28;20060;-66
2022/12/01 05:15:13;;;;;;;35.55;18.85;;;5.70;99.90;;;;;;5015045;28;20118;-65
2022/12/01 05:17:39;;;;;;;38.33;19.35;;;5.60;99.90;;;;;;5012956;28;20454;-65
2022/12/01 05:22:51;;;;;;;37.22;18.20;;;5.60;99.90;;;;;;5031794;28;20479;-65
2022/12/01 05:25:17;;;;;;;36.40;19.73;;;5.60;99.90;;;;;;5011955;28;20128;-65
2022/12/01 05:27:43;;;;;;;36.13;17.95;;;5.60;99.90;;;;;;5012854;28;20054;-65
2022/12/01 05:30:10;;;;;;;36.22;17.83;;;5.70;99.90;;;;;;5011826;28;20144;-65
2022/12/01 05:32:36;;;;;;;35.92;18.27;;;5.60;99.90;;;;;;5015782;28;20038;-65
2022/12/01 05:35:01;;;;;;;36.00;17.77;;;5.60;99.90;;;;;;5015373;28;20041;-65
2022/12/01 05:37:33;;;;;;;39.20;18.38;;;5.60;99.90;;;;;;5012556;28;20106;-65
2022/12/01 05:39:59;;;;;;;34.80;19.00;;;5.50;99.90;;;;;;5013994;28;20053;-66
2022/12/01 05:42:25;;;;;;;38.72;18.52;;;5.60;99.90;;;;;;5011953;28;20056;-66
2022/12/01 05:44:51;;;;;;;37.50;18.77;;;5.60;99.90;;;;;;5014409;28;20042;-65
2022/12/01 05:47:17;;;;;;;36.67;18.70;;;5.60;99.90;;;;;;5011556;28;20102;-65
2022/12/01 05:49:42;;;;;;;38.65;18.23;;;5.60;99.90;;;;;;5014962;28;20045;-65
2022/12/01 05:52:08;;;;;;;37.05;18.88;;;5.60;99.90;;;;;;5013062;28;20037;-65
2022/12/01 05:54:34;;;;;;;37.50;19.50;;;5.60;99.90;;;;;;5014082;28;20044;-66
2022/12/01 05:57:00;;;;;;;43.83;18.67;;;5.50;99.90;;;;;;5012401;28;20469;-65
2022/12/01 05:59:26;;;;;;;35.28;17.30;;;5.60;99.90;;;;;;5011829;28;20089;-66
2022/12/01 06:01:52;;;;;;;38.30;18.10;;;5.60;99.90;;;;;;5028677;28;20046;-65
2022/12/01 06:04:18;;;;;;;38.75;20.02;;;5.60;99.90;;;;;;5011453;28;20046;-65
2022/12/01 06:06:44;;;;;;;36.90;18.30;;;5.50;99.90;;;;;;5014137;28;20053;-65
2022/12/01 06:09:09;;;;;;;40.25;19.25;;;5.60;99.90;;;;;;5012359;28;20107;-66
2022/12/01 06:11:35;;;;;;;40.17;18.88;;;5.50;99.90;;;;;;5013923;28;20046;-66
2022/12/01 06:14:01;;;;;;;36.67;19.23;;;5.60;99.90;;;;;;5024457;28;20088;-66
2022/12/01 06:16:27;;;;;;;38.50;19.65;;;5.50;99.90;;;;;;5030343;28;20037;-66
2022/12/01 06:18:52;;;;;;;41.72;20.63;;;5.50;99.90;;;;;;5079853;28;20061;-65
2022/12/01 06:21:18;;;;;;;42.42;19.40;;;5.60;99.90;;;;;;5012226;28;20046;-66
2022/12/01 06:23:44;;;;;;;38.65;19.50;;;5.60;99.90;;;;;;5013096;28;20049;-66
2022/12/01 06:26:09;;;;;;;42.45;18.83;;;5.60;99.90;;;;;;5010810;28;20046;-66
2022/12/01 06:28:35;;;;;;;39.50;18.88;;;5.60;99.90;;;;;;5024135;28;20067;-66
2022/12/01 06:31:01;;;;;;;36.50;19.30;;;5.60;99.90;;;;;;5014988;28;20042;-66
2022/12/01 06:33:26;;;;;;;36.75;20.20;;;5.60;99.90;;;;;;5012717;28;20030;-66
2022/12/01 06:36:05;;;;;;;36.80;17.80;;;5.60;99.90;;;;;;5014907;28;20042;-66
2022/12/01 06:38:36;;;;;;;37.13;18.98;;;5.60;99.90;;;;;;5014147;28;20093;-66
2022/12/01 06:41:04;;;;;;;35.35;17.65;;;5.60;99.90;;;;;;5017531;28;20049;-66
2022/12/01 06:43:30;;;;;;;36.67;18.63;;;5.60;99.90;;;;;;5015772;28;20038;-65
2022/12/01 06:45:55;;;;;;;37.03;18.52;;;5.60;99.90;;;;;;5039896;28;20130;-66
2022/12/01 06:48:21;;;;;;;38.75;18.70;;;5.60;99.90;;;;;;5111537;27;20043;-65
2022/12/01 06:50:47;;;;;;;34.75;18.45;;;5.60;99.90;;;;;;5021744;28;20052;-65
2022/12/01 06:53:12;;;;;;;35.28;17.25;;;5.60;99.90;;;;;;5020820;27;20170;-65
2022/12/01 06:55:38;;;;;;;37.28;18.80;;;5.70;99.90;;;;;;5028457;28;20057;-65
2022/12/01 06:58:04;;;;;;;36.58;18.58;;;5.60;99.90;;;;;;5017576;28;20042;-65
2022/12/01 07:00:30;;;;;;;38.83;18.60;;;5.60;99.90;;;;;;5015385;28;20050;-65
2022/12/01 07:02:55;;;;;;;36.92;18.13;;;5.60;99.90;;;;;;5046134;28;20464;-66
2022/12/01 07:05:22;;;;;;;36.15;18.88;;;5.60;99.90;;;;;;5015509;28;20071;-64
2022/12/01 07:07:48;;;;;;;40.58;18.75;;;5.60;99.90;;;;;;5015622;28;20057;-66
2022/12/01 07:10:14;;;;;;;36.42;19.08;;;5.40;99.90;;;;;;5016588;28;20050;-65
2022/12/01 07:12:40;;;;;;;37.20;19.05;;;5.60;99.90;;;;;;5015122;28;20041;-65
2022/12/01 07:15:07;;;;;;;41.67;20.17;;;5.60;99.90;;;;;;5029816;28;20424;-66
2022/12/01 07:17:34;;;;;;;38.22;18.73;;;5.60;99.90;;;;;;5015376;28;20231;-65
2022/12/01 07:20:00;;;;;;;37.20;18.48;;;5.70;99.90;;;;;;5042435;28;20225;-65
2022/12/01 07:22:27;;;;;;;36.10;18.15;;;5.70;99.90;;;;;;5034591;28;20041;-65
2022/12/01 07:24:52;;;;;;;36.03;17.98;;;5.70;99.90;;;;;;5029773;28;20102;-65
2022/12/01 07:27:18;;;;;;;36.80;18.10;;;5.70;99.90;;;;;;5015277;28;20118;-65
2022/12/01 07:29:44;;;;;;;37.88;18.70;;;5.70;99.90;;;;;;5013289;28;20034;-65
2022/12/01 07:32:09;;;;;;;39.42;18.08;;;5.70;99.90;;;;;;5016995;28;20042;-65
2022/12/01 07:34:35;;;;;;;38.90;17.65;;;5.70;99.90;;;;;;5015292;28;20048;-65
2022/12/01 07:37:01;;;;;;;38.60;18.10;;;5.70;99.90;;;;;;5017990;28;20046;-65
2022/12/01 07:39:26;;;;;;;40.00;17.30;;;5.70;99.90;;;;;;5023032;28;20038;-65
2022/12/01 07:41:52;;;;;;;39.35;18.27;;;5.80;99.90;;;;;;5015310;28;20536;-65
2022/12/01 07:44:18;;;;;;;36.80;17.33;;;5.70;99.90;;;;;;5013001;28;20049;-65
2022/12/01 07:46:43;;;;;;;35.20;17.77;;;5.70;99.90;;;;;;5013847;28;20165;-65
2022/12/01 07:49:11;;;;;;;36.35;16.50;;;5.70;99.90;;;;;;5014888;28;20054;-65
2022/12/01 07:51:36;;;;;;;34.70;18.20;;;5.70;99.90;;;;;;5014375;28;20077;-65
2022/12/01 07:54:05;;;;;;;36.38;18.52;;;5.70;99.90;;;;;;5027297;28;20128;-66
2022/12/01 07:56:31;;;;;;;37.28;17.67;;;5.70;99.90;;;;;;5014577;28;20592;-65
2022/12/01 07:58:57;;;;;;;36.35;16.35;;;5.80;99.90;;;;;;5013753;28;20049;-65
2022/12/01 08:01:24;;;;;;;36.88;17.85;;;5.70;99.90;;;;;;5026135;28;20038;-65
2022/12/01 08:03:52;;;;;;;36.90;16.80;;;5.80;99.90;;;;;;5014176;28;20045;-65
2022/12/01 08:06:19;;;;;;;38.47;18.17;;;5.80;99.90;;;;;;5014556;28;20174;-65
2022/12/01 08:08:45;;;;;;;39.53;18.63;;;5.80;99.90;;;;;;5030546;27;20053;-66
2022/12/01 08:11:20;;;;;;;36.25;18.02;;;5.80;99.90;;;;;;5008014;28;20045;-65
2022/12/01 08:13:46;;;;;;;38.20;16.58;;;5.80;99.90;;;;;;5036163;28;20060;-65
2022/12/01 08:16:16;;;;;;;35.65;17.73;;;5.80;99.90;;;;;;5037098;28;20056;-65
2022/12/01 08:18:42;;;;;;;34.67;17.17;;;5.80;99.90;;;;;;5025617;28;20050;-65
2022/12/01 08:21:10;;;;;;;38.72;17.73;;;5.80;99.90;;;;;;5034454;27;20573;-65
2022/12/01 08:23:36;;;;;;;36.05;18.63;;;5.80;99.90;;;;;;5097130;27;20508;-65
2022/12/01 08:26:05;;;;;;;38.55;17.45;;;5.80;99.90;;;;;;5006576;28;20084;-65
2022/12/01 08:28:31;;;;;;;38.17;17.73;;;5.80;99.90;;;;;;5024122;28;20030;-65
2022/12/01 08:30:57;;;;;;;37.03;17.33;;;5.90;99.90;;;;;;5032640;28;20473;-65
2022/12/01 08:33:23;;;;;;;33.00;16.80;;;5.90;99.90;;;;;;5022694;28;20060;-66
2022/12/01 08:35:48;;;;;;;37.20;17.15;;;5.90;99.90;;;;;;5024870;28;20041;-65
2022/12/01 08:38:15;;;;;;;35.08;18.02;;;5.90;99.90;;;;;;5021747;28;20041;-65
2022/12/01 08:40:40;;;;;;;36.95;17.40;;;5.90;99.90;;;;;;5023052;28;20566;-65
2022/12/01 08:43:06;;;;;;;41.17;17.83;;;6.00;99.90;;;;;;5014207;28;20050;-65
2022/12/01 08:45:32;;;;;;;35.15;17.45;;;5.90;99.90;;;;;;5015241;28;20049;-65
2022/12/01 08:47:58;;;;;;;39.67;18.05;;;6.00;99.90;;;;;;5013949;28;20076;-65
2022/12/01 08:50:27;;;;;;;41.05;19.25;;;6.00;99.90;;;;;;5016625;28;20054;-66
2022/12/01 08:52:53;;;;;;;34.65;17.88;;;6.00;99.90;;;;;;5053834;27;20038;-64
2022/12/01 08:55:20;;;;;;;35.72;18.73;;;6.00;99.90;;;;;;5030567;28;20045;-64
2022/12/01 08:57:46;;;;;;;38.42;17.65;;;6.00;99.90;;;;;;5029597;28;20046;-64
2022/12/01 09:00:12;;;;;;;37.10;18.00;;;5.90;99.90;;;;;;5025355;28;20055;-64
2022/12/01 09:02:38;;;;;;;37.95;18.48;;;6.00;99.90;;;;;;5022979;28;20117;-64
2022/12/01 09:05:04;;;;;;;40.00;17.83;;;6.00;99.90;;;;;;5017847;28;20042;-64
2022/12/01 09:07:31;;;;;;;39.72;18.73;;;6.00;99.90;;;;;;5025510;28;20061;-64
2022/12/01 09:09:57;;;;;;;35.08;17.08;;;6.00;99.90;;;;;;5009156;28;20053;-64
2022/12/01 09:12:22;;;;;;;35.88;17.90;;;6.00;99.90;;;;;;5058658;27;20128;-64
2022/12/01 09:14:48;;;;;;;37.63;17.60;;;6.00;99.90;;;;;;5043874;28;20514;-64
2022/12/01 09:17:15;;;;;;;33.00;16.73;;;6.00;99.90;;;;;;5021089;28;20040;-64
2022/12/01 09:19:42;;;;;;;38.75;17.33;;;6.10;99.90;;;;;;5018453;28;20038;-64
2022/12/01 09:22:09;;;;;;;36.72;17.40;;;6.10;99.90;;;;;;5020574;28;20068;-64
2022/12/01 09:24:35;;;;;;;37.35;17.50;;;6.10;99.90;;;;;;5012436;28;20045;-64
2022/12/01 09:27:02;;;;;;;35.10;16.50;;;6.20;99.90;;;;;;5016012;28;20431;-64
2022/12/01 09:29:28;;;;;;;35.58;17.77;;;6.20;99.90;;;;;;5031088;28;20060;-64
2022/12/01 09:31:57;;;;;;;32.78;17.30;;;6.30;99.90;;;;;;5015631;28;20378;-64
2022/12/01 09:34:24;;;;;;;40.30;20.10;;;6.30;99.90;;;;;;5032448;28;20598;-64
2022/12/01 09:36:53;;;;;;;36.50;17.10;;;6.20;99.90;;;;;;5066649;28;20050;-64
2022/12/01 09:39:20;;;;;;;33.72;17.52;;;6.20;99.90;;;;;;5057838;28;20056;-64
2022/12/01 09:42:03;;;;;;;38.80;17.83;;;6.30;99.90;;;;;;5030740;28;20069;-64
2022/12/01 09:44:43;;;;;;;35.03;17.42;;;6.20;99.90;;;;;;5024791;28;20596;-64
2022/12/01 09:47:22;;;;;;;37.92;16.70;;;6.40;99.90;;;;;;5032080;28;20089;-64
2022/12/01 09:50:09;;;;;;;35.13;16.52;;;6.30;99.90;;;;;;5033973;28;20046;-64
2022/12/01 09:52:46;;;;;;;35.95;16.80;;;6.30;99.90;;;;;;5025813;28;20034;-64
2022/12/01 09:55:13;;;;;;;35.78;16.02;;;6.30;99.90;;;;;;5023302;28;20106;-64
2022/12/01 09:57:41;;;;;;;38.15;17.00;;;6.30;99.90;;;;;;5030656;28;20466;-64
2022/12/01 10:00:20;;;;;;;30.05;15.25;;;6.30;99.90;;;;;;5009805;28;20069;-64
2022/12/01 10:03:12;;;;;;;33.38;17.70;;;6.30;99.90;;;;;;5021313;28;20102;-64
2022/12/01 10:05:47;;;;;;;33.70;17.55;;;6.30;99.90;;;;;;5021032;28;20533;-64
2022/12/01 10:08:16;;;;;;;34.13;15.98;;;6.30;99.90;;;;;;5028251;28;20053;-64
2022/12/01 10:10:48;;;;;;;31.65;15.93;;;6.30;99.90;;;;;;5037959;27;20098;-64
2022/12/01 10:13:26;;;;;;;31.02;16.63;;;6.30;99.90;;;;;;5035353;28;20046;-64
2022/12/01 10:16:17;;;;;;;29.90;15.23;;;6.30;99.90;;;;;;5050176;28;20066;-64
2022/12/01 10:19:28;;;;;;;28.20;15.15;;;6.40;99.90;;;;;;5031846;28;20098;-64
2022/12/01 10:22:09;;;;;;;32.75;16.90;;;6.40;99.90;;;;;;5037066;28;20079;-64
2022/12/01 10:24:55;;;;;;;33.13;15.77;;;6.40;99.90;;;;;;5011502;28;20064;-64
2022/12/01 10:27:27;;;;;;;30.98;15.77;;;6.50;99.90;;;;;;5022758;28;20044;-64
2022/12/01 10:30:04;;;;;;;33.50;17.05;;;6.40;99.90;;;;;;5035527;28;20101;-64
2022/12/01 10:33:23;;;;;;;27.52;15.25;;;6.40;99.90;;;;;;5036791;28;20327;-64
2022/12/01 10:35:49;;;;;;;29.88;15.25;;;6.40;99.90;;;;;;5055991;28;20049;-64
2022/12/01 10:38:35;;;;;;;24.70;14.38;;;6.40;99.90;;;;;;5027462;28;20056;-64
2022/12/01 10:41:04;;;;;;;30.92;15.25;;;6.40;99.90;;;;;;5019645;28;20058;-64
2022/12/01 10:43:44;;;;;;;31.10;14.43;;;6.50;99.90;;;;;;5018216;28;20057;-64
2022/12/01 10:46:19;;;;;;;29.73;14.82;;;6.50;99.90;;;;;;5017203;28;20101;-65
2022/12/01 10:48:57;;;;;;;27.15;15.52;;;6.50;99.90;;;;;;5031441;28;20505;-64
2022/12/01 10:51:24;;;;;;;28.38;16.17;;;6.50;99.90;;;;;;5025827;28;20045;-64
2022/12/01 10:53:57;;;;;;;33.92;15.70;;;6.50;99.90;;;;;;5043317;27;20079;-64
2022/12/01 10:56:24;;;;;;;32.17;15.95;;;6.50;99.90;;;;;;5032291;28;20042;-64
2022/12/01 10:58:55;;;;;;;31.23;15.43;;;6.50;99.90;;;;;;5022596;28;20034;-64
2022/12/01 11:01:29;;;;;;;32.60;15.25;;;6.50;99.90;;;;;;5023641;28;20073;-64
2022/12/01 11:04:02;;;;;;;33.83;16.02;;;6.50;99.90;;;;;;5023900;28;20449;-64
2022/12/01 11:06:29;;;;;;;28.38;14.95;;;6.50;99.90;;;;;;5024725;28;20133;-64
2022/12/01 11:09:01;;;;;;;29.17;14.85;;;6.50;99.90;;;;;;5022664;28;20041;-64
2022/12/01 11:11:34;;;;;;;31.90;15.10;;;6.40;99.90;;;;;;5024665;28;20041;-64
2022/12/01 11:14:17;;;;;;;27.48;14.77;;;6.60;99.90;;;;;;5014744;27;20053;-64
2022/12/01 11:16:46;;;;;;;28.85;14.55;;;6.60;99.90;;;;;;5024594;28;20432;-64
2022/12/01 11:19:20;;;;;;;26.33;15.27;;;6.60;99.90;;;;;;5024327;28;20054;-64
2022/12/01 11:21:51;;;;;;;27.27;14.57;;;6.60;99.90;;;;;;5020354;28;20050;-64
2022/12/01 11:24:42;;;;;;;26.02;15.40;;;6.60;99.90;;;;;;5024022;28;20049;-64
2022/12/01 11:27:29;;;;;;;27.85;14.52;;;6.70;99.90;;;;;;5024797;28;20050;-64
2022/12/01 11:29:58;;;;;;;29.83;14.70;;;6.70;99.90;;;;;;5021987;28;20052;-64
2022/12/01 11:32:25;;;;;;;26.58;14.27;;;6.70;99.90;;;;;;5024029;28;20041;-64
2022/12/01 11:34:57;;;;;;;24.75;14.00;;;6.70;99.90;;;;;;5034467;28;20080;-64
2022/12/01 11:37:31;;;;;;;27.33;15.05;;;6.70;99.90;;;;;;5035711;28;20045;-64
2022/12/01 11:40:21;;;;;;;27.83;14.07;;;6.70;99.90;;;;;;5034227;28;20042;-64
2022/12/01 11:42:53;;;;;;;27.80;15.02;;;6.70;99.90;;;;;;5033116;28;20038;-64
2022/12/01 11:45:32;;;;;;;26.13;13.95;;;6.70;99.90;;;;;;5036279;28;20129;-64
2022/12/01 11:48:06;;;;;;;27.20;14.38;;;6.70;99.90;;;;;;5034902;28;20049;-64
2022/12/01 11:50:38;;;;;;;25.10;14.10;;;6.80;99.90;;;;;;5033792;28;20130;-64
2022/12/01 11:53:31;;;;;;;23.30;13.18;;;6.80;99.90;;;;;;5072163;27;20077;-64
2022/12/01 11:56:12;;;;;;;23.00;13.23;;;6.80;99.90;;;;;;5138201;27;20039;-64
2022/12/01 11:58:38;;;;;;;22.58;12.90;;;6.80;99.90;;;;;;5139523;27;20043;-65
2022/12/01 12:01:15;;;;;;;26.20;13.80;;;6.80;99.90;;;;;;5139171;27;20099;-64
2022/12/01 12:03:57;;;;;;;23.90;13.40;;;6.80;99.90;;;;;;5136945;27;20062;-64
2022/12/01 12:06:34;;;;;;;27.85;15.10;;;6.90;99.90;;;;;;5139996;27;20088;-64
2022/12/01 12:09:29;;;;;;;25.25;13.63;;;6.90;99.90;;;;;;5137559;27;20046;-64
2022/12/01 12:12:17;;;;;;;25.42;13.13;;;6.90;99.90;;;;;;5138559;27;20039;-65
2022/12/01 12:15:10;;;;;;;24.33;13.18;;;6.90;99.90;;;;;;5021483;28;20564;-64
2022/12/01 12:17:52;;;;;;;23.95;12.52;;;6.90;99.90;;;;;;5018754;28;20042;-64
2022/12/01 12:20:47;;;;;;;20.33;11.80;;;6.80;99.90;;;;;;5014973;28;20046;-65
2022/12/01 12:23:44;;;;;;;21.65;12.50;;;6.80;99.90;;;;;;5014698;28;20113;-65
2022/12/01 12:26:21;;;;;;;23.20;12.93;;;6.80;99.90;;;;;;5014269;28;20053;-65
2022/12/01 12:29:21;;;;;;;23.10;12.52;;;6.80;99.90;;;;;;5013929;28;20058;-65
2022/12/01 12:32:11;;;;;;;22.55;12.80;;;6.80;99.90;;;;;;5008418;28;20418;-65
2022/12/01 12:35:15;;;;;;;21.33;13.05;;;6.80;99.90;;;;;;5012207;28;20049;-64
2022/12/01 12:38:15;;;;;;;20.38;12.30;;;6.80;99.90;;;;;;5013286;28;20103;-65
2022/12/01 12:40:53;;;;;;;23.10;12.85;;;6.80;99.90;;;;;;5013793;28;20061;-65
2022/12/01 12:43:35;;;;;;;28.75;16.77;;;6.80;99.90;;;;;;5013891;28;20075;-65
2022/12/01 12:46:23;;;;;;;23.00;13.77;;;6.80;99.90;;;;;;5014899;28;20046;-65
2022/12/01 12:49:15;;;;;;;23.98;14.00;;;6.80;99.90;;;;;;5015682;28;20134;-64
2022/12/01 12:51:47;;;;;;;23.67;13.20;;;6.80;99.90;;;;;;5009009;28;20057;-65
2022/12/01 12:54:17;;;;;;;21.85;13.20;;;6.80;99.90;;;;;;5117110;27;20146;-65
2022/12/01 12:56:50;;;;;;;22.10;12.48;;;6.80;99.90;;;;;;5138260;27;20070;-64
2022/12/01 12:59:25;;;;;;;21.92;11.82;;;6.80;99.90;;;;;;5136205;27;20076;-65
2022/12/01 13:02:09;;;;;;;25.40;13.27;;;6.70;99.90;;;;;;5138982;27;20039;-64
2022/12/01 13:04:51;;;;;;;20.33;11.82;;;6.80;99.90;;;;;;5137110;27;20051;-64
2022/12/01 13:07:35;;;;;;;21.33;12.55;;;6.70;99.90;;;;;;5138133;27;20155;-65
2022/12/01 13:10:27;;;;;;;24.08;12.93;;;6.80;99.90;;;;;;5138281;27;20050;-65